createdAt,value
2023-03-18T00:00:09.847Z,56.70
2023-03-18T00:02:38.183Z,56.90
2023-03-18T00:05:07.465Z,56.70
2023-03-18T00:07:36.112Z,56.70
2023-03-18T00:10:04.186Z,56.80
2023-03-18T00:12:33.236Z,56.80
2023-03-18T00:15:02.508Z,56.90
2023-03-18T00:17:31.000Z,56.80
2023-03-18T00:20:05.652Z,57.00
2023-03-18T00:22:34.014Z,57.20
2023-03-18T00:25:02.019Z,57.70
2023-03-18T00:27:30.336Z,58.10
2023-03-18T00:29:58.926Z,58.00
2023-03-18T00:32:29.053Z,58.10
2023-03-18T00:34:57.264Z,58.10
2023-03-18T00:37:31.134Z,57.70
2023-03-18T00:40:04.832Z,57.50
2023-03-18T00:42:37.243Z,57.30
2023-03-18T00:45:07.081Z,57.40
2023-03-18T00:47:38.406Z,57.30
2023-03-18T00:50:07.321Z,57.20
2023-03-18T00:52:35.319Z,57.10
2023-03-18T00:55:03.216Z,57.10
2023-03-18T00:57:31.302Z,56.90
2023-03-18T00:59:59.904Z,56.90
2023-03-18T01:02:28.919Z,56.90
2023-03-18T01:04:58.936Z,56.80
2023-03-18T01:07:27.025Z,56.70
2023-03-18T01:09:55.143Z,56.70
2023-03-18T01:12:25.567Z,56.70
2023-03-18T01:14:53.756Z,56.70
2023-03-18T01:17:21.881Z,56.60
2023-03-18T01:19:49.912Z,56.60
2023-03-18T01:22:19.525Z,56.50
2023-03-18T01:24:50.705Z,56.50
2023-03-18T01:27:21.782Z,56.50
2023-03-18T01:29:49.917Z,56.40
2023-03-18T01:32:22.350Z,57.40
2023-03-18T01:34:50.630Z,56.60
2023-03-18T01:39:55.795Z,56.30
2023-03-18T01:42:24.758Z,56.30
2023-03-18T01:45:12.238Z,56.30
2023-03-18T01:47:44.578Z,56.30
2023-03-18T01:50:14.896Z,56.30
2023-03-18T01:52:44.689Z,56.50
2023-03-18T01:55:15.947Z,56.90
2023-03-18T01:57:44.140Z,56.90
2023-03-18T02:00:12.830Z,57.00
2023-03-18T02:02:46.963Z,56.90
2023-03-18T02:05:17.501Z,57.00
2023-03-18T02:07:47.137Z,57.20
2023-03-18T02:10:16.728Z,57.30
2023-03-18T02:12:45.726Z,57.20
2023-03-18T02:15:21.317Z,57.30
2023-03-18T02:17:52.619Z,57.30
2023-03-18T02:20:32.197Z,57.30
2023-03-18T02:23:04.567Z,57.30
2023-03-18T02:25:37.413Z,57.30
2023-03-18T02:28:09.514Z,57.30
2023-03-18T02:30:39.189Z,57.30
2023-03-18T02:33:08.404Z,57.30
2023-03-18T02:35:36.700Z,57.30
2023-03-18T02:38:04.931Z,57.40
2023-03-18T02:40:34.103Z,57.40
2023-03-18T02:43:21.043Z,57.40
2023-03-18T02:46:16.013Z,57.40
2023-03-18T02:48:45.094Z,57.50
2023-03-18T02:51:14.285Z,57.20
2023-03-18T02:53:42.226Z,57.10
2023-03-18T02:56:10.758Z,56.70
2023-03-18T02:58:41.321Z,56.50
2023-03-18T03:01:10.368Z,56.50
2023-03-18T03:03:38.686Z,56.70
2023-03-18T03:06:08.826Z,57.00
2023-03-18T03:08:36.807Z,56.80
2023-03-18T03:11:06.275Z,57.00
2023-03-18T03:13:37.029Z,56.90
2023-03-18T03:16:06.848Z,56.90
2023-03-18T03:18:35.364Z,57.20
2023-03-18T03:21:04.223Z,57.00
2023-03-18T03:23:32.494Z,57.30
2023-03-18T03:26:00.373Z,57.10
2023-03-18T03:28:28.470Z,57.00
2023-03-18T03:30:56.987Z,57.00
2023-03-18T03:33:26.471Z,56.90
2023-03-18T03:35:54.654Z,56.90
2023-03-18T03:38:23.054Z,56.70
2023-03-18T03:40:51.341Z,56.50
2023-03-18T03:43:19.232Z,56.10
2023-03-18T03:45:47.229Z,56.20
2023-03-18T03:48:15.517Z,56.20
2023-03-18T03:50:44.810Z,55.90
2023-03-18T03:53:12.725Z,55.80
2023-03-18T03:55:41.223Z,55.60
2023-03-18T03:58:10.945Z,55.50
2023-03-18T04:00:39.983Z,55.40
2023-03-18T04:03:08.051Z,55.40
2023-03-18T04:05:35.955Z,55.40
2023-03-18T04:08:05.522Z,55.40
2023-03-18T04:10:38.378Z,55.50
2023-03-18T04:13:10.314Z,55.60
2023-03-18T04:15:38.832Z,55.50
2023-03-18T04:18:11.746Z,55.50
2023-03-18T04:20:40.007Z,55.40
2023-03-18T04:23:20.769Z,55.40
2023-03-18T04:25:48.730Z,55.40
2023-03-18T04:28:17.629Z,55.20
2023-03-18T04:30:45.531Z,55.20
2023-03-18T04:33:17.880Z,55.50
2023-03-18T04:35:45.920Z,55.30
2023-03-18T04:38:15.542Z,55.30
2023-03-18T04:40:45.553Z,55.20
2023-03-18T04:43:13.533Z,55.30
2023-03-18T04:45:41.447Z,55.30
2023-03-18T04:48:10.291Z,55.10
2023-03-18T04:50:41.483Z,55.10
2023-03-18T04:53:13.407Z,55.20
2023-03-18T04:55:41.687Z,55.10
2023-03-18T04:58:13.494Z,55.10
2023-03-18T05:00:48.060Z,55.00
2023-03-18T05:03:25.123Z,55.10
2023-03-18T05:05:53.202Z,54.80
2023-03-18T05:08:27.316Z,54.90
2023-03-18T05:10:56.044Z,54.80
2023-03-18T05:13:25.611Z,54.80
2023-03-18T05:15:53.881Z,55.00
2023-03-18T05:18:22.304Z,54.80
2023-03-18T05:20:53.356Z,54.70
2023-03-18T05:23:21.235Z,54.80
2023-03-18T05:25:52.744Z,54.80
2023-03-18T05:28:22.704Z,54.60
2023-03-18T05:31:07.861Z,54.40
2023-03-18T05:33:42.327Z,55.60
2023-03-18T05:36:11.557Z,54.50
2023-03-18T05:38:49.210Z,54.70
2023-03-18T05:41:17.408Z,54.80
2023-03-18T05:43:45.385Z,55.10
2023-03-18T05:46:14.935Z,55.20
2023-03-18T05:48:53.490Z,55.30
2023-03-18T05:51:23.056Z,55.30
2023-03-18T05:53:51.233Z,55.40
2023-03-18T05:56:26.153Z,55.40
2023-03-18T05:58:58.652Z,55.50
2023-03-18T06:01:34.341Z,55.50
2023-03-18T06:04:03.082Z,55.40
2023-03-18T06:06:31.896Z,55.50
2023-03-18T06:09:00.927Z,55.70
2023-03-18T06:11:29.393Z,55.70
2023-03-18T06:13:58.186Z,55.80
2023-03-18T06:16:26.616Z,55.60
2023-03-18T06:18:59.274Z,55.60
2023-03-18T06:21:27.292Z,55.60
2023-03-18T06:23:55.234Z,55.70
2023-03-18T06:26:23.719Z,55.70
2023-03-18T06:28:51.652Z,55.50
2023-03-18T06:31:19.634Z,55.40
2023-03-18T06:33:47.674Z,55.40
2023-03-18T06:36:19.548Z,55.30
2023-03-18T06:38:50.822Z,55.40
2023-03-18T06:41:18.957Z,55.50
2023-03-18T06:43:59.740Z,55.40
2023-03-18T06:46:30.455Z,55.20
2023-03-18T06:48:59.966Z,54.80
2023-03-18T06:51:34.318Z,54.80
2023-03-18T06:54:02.605Z,54.80
2023-03-18T06:56:33.861Z,55.10
2023-03-18T06:59:12.844Z,55.10
2023-03-18T07:01:41.331Z,55.50
2023-03-18T07:04:09.392Z,55.30
2023-03-18T07:06:39.016Z,55.10
2023-03-18T07:09:07.035Z,54.90
2023-03-18T07:11:35.199Z,55.00
2023-03-18T07:14:08.865Z,55.20
2023-03-18T07:16:37.415Z,55.10
2023-03-18T07:19:05.387Z,55.10
2023-03-18T07:21:33.388Z,55.00
2023-03-18T07:24:03.907Z,55.10
2023-03-18T07:26:31.896Z,55.20
2023-03-18T07:28:59.783Z,55.00
2023-03-18T07:31:28.342Z,55.20
2023-03-18T07:33:57.331Z,55.10
2023-03-18T07:36:25.638Z,55.20
2023-03-18T07:38:53.555Z,54.80
2023-03-18T07:41:22.828Z,54.50
2023-03-18T07:43:50.685Z,54.40
2023-03-18T07:46:18.927Z,54.40
2023-03-18T07:48:46.835Z,54.40
2023-03-18T07:51:15.628Z,54.20
2023-03-18T07:53:43.593Z,54.10
2023-03-18T07:56:11.607Z,54.60
2023-03-18T07:58:41.002Z,54.50
2023-03-18T08:01:09.407Z,54.50
2023-03-18T08:03:37.446Z,54.50
2023-03-18T08:06:05.618Z,54.50
2023-03-18T08:08:33.779Z,54.40
2023-03-18T08:11:02.457Z,54.40
2023-03-18T08:13:30.395Z,54.60
2023-03-18T08:15:59.692Z,54.70
2023-03-18T08:18:27.567Z,54.70
2023-03-18T08:20:55.418Z,54.50
2023-03-18T08:23:23.594Z,54.50
2023-03-18T08:25:52.041Z,55.00
2023-03-18T08:28:20.131Z,55.40
2023-03-18T08:30:48.842Z,55.10
2023-03-18T08:33:18.065Z,55.10
2023-03-18T08:35:46.365Z,55.50
2023-03-18T08:38:14.488Z,55.70
2023-03-18T08:40:42.415Z,55.80
2023-03-18T08:43:10.320Z,55.60
2023-03-18T08:45:39.116Z,55.60
2023-03-18T08:48:07.169Z,55.70
2023-03-18T08:50:36.865Z,55.60
2023-03-18T08:53:05.685Z,55.80
2023-03-18T08:55:35.127Z,55.90
2023-03-18T08:58:04.361Z,55.90
2023-03-18T09:00:32.274Z,55.80
2023-03-18T09:03:00.136Z,55.80
2023-03-18T09:05:27.976Z,55.90
2023-03-18T09:07:58.254Z,55.70
2023-03-18T09:10:26.334Z,55.80
2023-03-18T09:12:54.403Z,55.80
2023-03-18T09:15:22.541Z,55.80
2023-03-18T09:18:08.161Z,55.90
2023-03-18T09:20:38.922Z,55.90
2023-03-18T09:23:08.793Z,55.90
2023-03-18T09:25:36.810Z,55.90
2023-03-18T09:28:04.891Z,55.80
2023-03-18T09:30:33.734Z,55.80
2023-03-18T09:33:01.833Z,55.80
2023-03-18T09:35:30.499Z,55.70
2023-03-18T09:37:58.467Z,55.80
2023-03-18T09:40:28.639Z,55.80
2023-03-18T09:43:03.649Z,55.70
2023-03-18T09:45:34.358Z,55.80
2023-03-18T09:48:27.643Z,55.80
2023-03-18T09:50:58.090Z,55.80
2023-03-18T09:53:28.064Z,56.10
2023-03-18T09:56:00.748Z,56.20
2023-03-18T09:58:31.043Z,56.40
2023-03-18T10:01:01.169Z,56.50
2023-03-18T10:03:33.460Z,56.60
2023-03-18T10:06:04.428Z,56.70
2023-03-18T10:08:40.077Z,56.60
2023-03-18T10:11:14.029Z,56.70
2023-03-18T10:13:43.958Z,56.60
2023-03-18T10:16:13.160Z,56.80
2023-03-18T10:18:42.057Z,56.70
2023-03-18T10:21:16.002Z,56.80
2023-03-18T10:23:49.551Z,56.70
2023-03-18T10:26:20.663Z,56.80
2023-03-18T10:28:59.308Z,56.80
2023-03-18T10:31:37.476Z,56.80
2023-03-18T10:34:09.554Z,56.80
2023-03-18T10:36:40.315Z,56.60
2023-03-18T10:39:13.514Z,56.80
2023-03-18T10:41:43.553Z,56.60
2023-03-18T10:44:16.845Z,57.50
2023-03-18T10:46:45.043Z,56.50
2023-03-18T10:49:14.987Z,56.40
2023-03-18T10:51:45.336Z,56.50
2023-03-18T10:54:15.788Z,56.50
2023-03-18T10:56:45.039Z,56.50
2023-03-18T10:59:15.307Z,56.60
2023-03-18T11:01:44.108Z,56.70
2023-03-18T11:04:14.406Z,57.20
2023-03-18T11:06:45.198Z,57.40
2023-03-18T11:09:13.908Z,57.70
2023-03-18T11:11:42.109Z,58.00
2023-03-18T11:14:17.046Z,58.20
2023-03-18T11:16:49.487Z,58.40
2023-03-18T11:19:27.974Z,58.60
2023-03-18T11:22:22.329Z,58.80
2023-03-18T11:25:16.517Z,58.90
2023-03-18T11:27:45.827Z,59.10
2023-03-18T11:30:33.185Z,59.10
2023-03-18T11:33:05.270Z,59.10
2023-03-18T11:35:34.508Z,59.00
2023-03-18T11:38:04.228Z,59.10
2023-03-18T11:40:32.790Z,59.00
2023-03-18T11:43:01.761Z,59.00
2023-03-18T11:45:58.859Z,58.90
2023-03-18T11:48:36.559Z,58.80
2023-03-18T11:51:19.332Z,58.70
2023-03-18T11:53:56.570Z,58.50
2023-03-18T11:56:27.198Z,58.40
2023-03-18T11:59:34.174Z,58.30
2023-03-18T12:02:16.432Z,59.00
2023-03-18T12:04:51.234Z,57.90
2023-03-18T12:07:49.428Z,57.80
2023-03-18T12:10:20.721Z,57.70
2023-03-18T12:13:09.502Z,57.60
2023-03-18T12:15:42.946Z,57.50
2023-03-18T12:18:24.278Z,57.40
2023-03-18T12:20:52.535Z,57.30
2023-03-18T12:23:38.549Z,57.20
2023-03-18T12:26:08.396Z,57.10
2023-03-18T12:28:48.890Z,57.10
2023-03-18T12:31:40.724Z,57.00
2023-03-18T12:34:15.100Z,57.00
2023-03-18T12:36:50.163Z,56.90
2023-03-18T12:39:57.142Z,56.70
2023-03-18T12:42:33.437Z,56.60
2023-03-18T12:45:03.172Z,56.40
2023-03-18T12:47:36.889Z,56.30
2023-03-18T12:50:07.247Z,56.20
2023-03-18T12:52:38.672Z,56.20
2023-03-18T12:55:09.190Z,56.10
2023-03-18T12:57:40.097Z,55.90
2023-03-18T13:00:10.537Z,55.90
2023-03-18T13:02:43.500Z,55.70
2023-03-18T13:05:20.875Z,55.60
2023-03-18T13:07:50.856Z,55.50
2023-03-18T13:10:21.695Z,55.40
2023-03-18T13:12:50.093Z,55.30
2023-03-18T13:15:23.216Z,55.20
2023-03-18T13:17:52.338Z,55.10
2023-03-18T13:20:23.809Z,55.00
2023-03-18T13:23:02.599Z,54.90
2023-03-18T13:25:35.438Z,54.90
2023-03-18T13:28:25.439Z,54.90
2023-03-18T13:31:00.307Z,54.80
2023-03-18T13:33:47.469Z,54.70
2023-03-18T13:36:36.328Z,54.80
2023-03-18T13:39:12.349Z,55.20
2023-03-18T13:41:53.724Z,55.30
2023-03-18T13:44:23.653Z,55.60
2023-03-18T13:46:55.871Z,55.40
2023-03-18T13:49:24.495Z,55.40
2023-03-18T13:51:56.009Z,55.60
2023-03-18T13:54:24.042Z,55.60
2023-03-18T13:56:55.517Z,55.60
2023-03-18T13:59:46.746Z,55.80
2023-03-18T14:02:32.650Z,55.90
2023-03-18T14:05:01.383Z,56.10
2023-03-18T14:07:30.631Z,56.20
2023-03-18T14:10:20.243Z,56.40
2023-03-18T14:12:48.945Z,56.40
2023-03-18T14:15:44.369Z,56.40
2023-03-18T14:18:27.677Z,56.40
2023-03-18T14:21:00.280Z,56.40
2023-03-18T14:23:40.295Z,56.50
2023-03-18T14:26:23.467Z,56.50
2023-03-18T14:28:55.592Z,56.60
2023-03-18T14:31:51.999Z,56.60
2023-03-18T14:34:27.810Z,56.70
2023-03-18T14:37:21.636Z,56.50
2023-03-18T14:39:52.921Z,56.50
2023-03-18T14:42:39.021Z,56.30
2023-03-18T14:45:08.724Z,56.50
2023-03-18T14:47:43.427Z,56.50
2023-03-18T14:50:20.483Z,56.80
2023-03-18T14:52:54.394Z,58.10
2023-03-18T14:55:25.618Z,57.00
2023-03-18T14:57:53.773Z,57.20
2023-03-18T15:00:24.172Z,57.20
2023-03-18T15:03:00.627Z,57.20
2023-03-18T15:05:32.738Z,57.30
2023-03-18T15:08:00.746Z,57.10
2023-03-18T15:10:31.593Z,56.90
2023-03-18T15:13:04.681Z,56.80
2023-03-18T15:15:33.025Z,56.60
2023-03-18T15:18:06.574Z,56.60
2023-03-18T15:20:35.420Z,56.50
2023-03-18T15:23:04.170Z,56.40
2023-03-18T15:25:33.889Z,56.30
2023-03-18T15:28:01.922Z,56.30
2023-03-18T15:30:31.004Z,56.20
2023-03-18T15:33:06.606Z,56.20
2023-03-18T15:35:34.815Z,56.10
2023-03-18T15:38:16.109Z,56.10
2023-03-18T15:40:49.515Z,56.00
2023-03-18T15:43:28.385Z,56.00
2023-03-18T15:45:58.675Z,55.90
2023-03-18T15:48:30.818Z,55.90
2023-03-18T15:51:00.034Z,55.90
2023-03-18T15:53:28.802Z,55.80
2023-03-18T15:55:58.759Z,55.80
2023-03-18T15:58:27.964Z,55.80
2023-03-18T16:00:56.256Z,55.70
2023-03-18T16:03:25.298Z,55.60
2023-03-18T16:05:53.607Z,55.90
2023-03-18T16:08:22.690Z,56.10
2023-03-18T16:10:51.170Z,56.30
2023-03-18T16:13:23.115Z,56.40
2023-03-18T16:15:51.121Z,56.50
2023-03-18T16:18:19.408Z,56.60
2023-03-18T16:20:48.136Z,56.50
2023-03-18T16:23:16.517Z,56.50
2023-03-18T16:25:45.015Z,56.50
2023-03-18T16:28:22.142Z,56.60
2023-03-18T16:30:52.105Z,56.70
2023-03-18T16:33:20.664Z,56.70
2023-03-18T16:35:52.137Z,56.70
2023-03-18T16:38:20.395Z,56.80
2023-03-18T16:40:48.346Z,56.80
2023-03-18T16:43:22.083Z,56.80
2023-03-18T16:45:50.558Z,57.00
2023-03-18T16:48:19.980Z,57.00
2023-03-18T16:50:50.009Z,57.10
2023-03-18T16:53:20.485Z,57.10
2023-03-18T16:55:50.694Z,57.20
2023-03-18T16:58:21.536Z,57.10
2023-03-18T17:00:49.716Z,57.20
2023-03-18T17:03:19.159Z,57.10
2023-03-18T17:05:48.716Z,57.10
2023-03-18T17:08:16.863Z,57.20
2023-03-18T17:10:45.219Z,57.20
2023-03-18T17:13:17.246Z,56.90
2023-03-18T17:15:46.507Z,57.00
2023-03-18T17:18:15.870Z,57.20
2023-03-18T17:20:44.113Z,57.00
2023-03-18T17:23:19.515Z,57.10
2023-03-18T17:25:51.900Z,57.20
2023-03-18T17:28:24.881Z,57.30
2023-03-18T17:30:54.222Z,57.40
2023-03-18T17:33:24.766Z,58.60
2023-03-18T17:35:53.182Z,58.60
2023-03-18T17:38:21.361Z,57.70
2023-03-18T17:40:49.497Z,57.30
2023-03-18T17:43:23.974Z,57.70
2023-03-18T17:45:52.585Z,57.80
2023-03-18T17:48:23.527Z,57.90
2023-03-18T17:50:52.196Z,57.80
2023-03-18T17:53:28.112Z,57.80
2023-03-18T17:55:56.812Z,57.90
2023-03-18T17:58:26.052Z,57.80
2023-03-18T18:00:54.866Z,57.60
2023-03-18T18:03:25.627Z,57.60
2023-03-18T18:05:54.027Z,57.80
2023-03-18T18:08:22.619Z,57.80
2023-03-18T18:10:50.534Z,57.80
2023-03-18T18:13:19.494Z,57.90
2023-03-18T18:15:47.672Z,58.00
2023-03-18T18:18:23.095Z,58.10
2023-03-18T18:20:54.842Z,58.30
2023-03-18T18:23:25.346Z,58.10
2023-03-18T18:25:53.391Z,58.10
2023-03-18T18:28:22.187Z,58.20
2023-03-18T18:30:50.252Z,58.10
2023-03-18T18:33:18.188Z,58.10
2023-03-18T18:35:46.137Z,58.00
2023-03-18T18:38:15.701Z,58.00
2023-03-18T18:40:43.630Z,57.90
2023-03-18T18:43:12.483Z,57.80
2023-03-18T18:45:40.644Z,57.80
2023-03-18T18:48:13.752Z,57.70
2023-03-18T18:50:42.350Z,57.60
2023-03-18T18:53:22.188Z,57.50
2023-03-18T18:55:50.554Z,57.40
2023-03-18T18:58:18.738Z,57.40
2023-03-18T19:00:48.530Z,57.40
2023-03-18T19:03:17.330Z,57.30
2023-03-18T19:05:45.823Z,57.30
2023-03-18T19:08:25.213Z,57.20
2023-03-18T19:10:54.490Z,57.20
2023-03-18T19:13:23.531Z,57.10
2023-03-18T19:15:52.438Z,57.00
2023-03-18T19:18:21.155Z,57.00
2023-03-18T19:20:49.862Z,57.00
2023-03-18T19:23:20.129Z,56.90
2023-03-18T19:25:48.052Z,56.90
2023-03-18T19:28:17.725Z,56.80
2023-03-18T19:30:45.709Z,56.80
2023-03-18T19:33:15.409Z,56.70
2023-03-18T19:35:43.518Z,56.60
2023-03-18T19:38:20.322Z,56.50
2023-03-18T19:40:49.965Z,56.40
2023-03-18T19:43:18.723Z,56.30
2023-03-18T19:45:49.204Z,56.30
2023-03-18T19:48:19.189Z,56.30
2023-03-18T19:50:47.644Z,56.20
2023-03-18T19:53:16.181Z,56.20
2023-03-18T19:55:45.649Z,56.10
2023-03-18T19:58:19.111Z,56.10
2023-03-18T20:00:47.465Z,56.10
2023-03-18T20:03:17.099Z,56.00
2023-03-18T20:05:45.035Z,55.90
2023-03-18T20:08:12.924Z,56.00
2023-03-18T20:10:41.444Z,56.00
2023-03-18T20:13:14.855Z,56.10
2023-03-18T20:15:42.895Z,56.10
2023-03-18T20:18:14.892Z,55.90
2023-03-18T20:20:43.234Z,56.10
2023-03-18T20:23:13.032Z,56.10
2023-03-18T20:25:43.695Z,55.90
2023-03-18T20:28:15.321Z,55.90
2023-03-18T20:30:43.226Z,55.90
2023-03-18T20:33:11.194Z,55.80
2023-03-18T20:35:39.992Z,55.90
2023-03-18T20:38:16.873Z,56.50
2023-03-18T20:40:47.535Z,56.90
2023-03-18T20:43:17.280Z,56.90
2023-03-18T20:45:45.178Z,56.40
2023-03-18T20:48:13.326Z,56.60
2023-03-18T20:50:41.221Z,56.70
2023-03-18T20:53:13.293Z,57.00
2023-03-18T20:55:41.523Z,57.10
2023-03-18T20:58:11.563Z,57.10
2023-03-18T21:00:40.829Z,57.10
2023-03-18T21:03:18.788Z,57.20
2023-03-18T21:05:47.458Z,57.50
2023-03-18T21:08:15.508Z,57.80
2023-03-18T21:10:43.501Z,57.90
2023-03-18T21:13:17.514Z,58.00
2023-03-18T21:15:47.757Z,58.40
2023-03-18T21:18:15.738Z,58.70
2023-03-18T21:20:45.674Z,58.90
2023-03-18T21:23:19.701Z,58.90
2023-03-18T21:25:48.298Z,58.90
2023-03-18T21:28:16.316Z,59.20
2023-03-18T21:30:44.304Z,59.40
2023-03-18T21:33:22.799Z,59.00
2023-03-18T21:35:52.400Z,58.90
2023-03-18T21:38:20.482Z,59.10
2023-03-18T21:40:48.381Z,59.10
2023-03-18T21:43:29.370Z,59.30
2023-03-18T21:45:57.269Z,59.40
2023-03-18T21:48:26.573Z,59.50
2023-03-18T21:50:54.586Z,59.40
2023-03-18T21:53:23.303Z,59.70
2023-03-18T21:55:51.563Z,60.40
2023-03-18T21:58:20.369Z,59.90
2023-03-18T22:00:50.641Z,59.50
2023-03-18T22:03:19.364Z,59.40
2023-03-18T22:05:51.479Z,59.30
2023-03-18T22:08:19.728Z,59.30
2023-03-18T22:10:47.784Z,59.30
2023-03-18T22:13:17.641Z,59.40
2023-03-18T22:15:46.013Z,59.50
2023-03-18T22:18:14.611Z,59.60
2023-03-18T22:20:42.724Z,59.70
2023-03-18T22:23:17.264Z,59.80
2023-03-18T22:25:46.570Z,60.00
2023-03-18T22:28:14.515Z,60.10
2023-03-18T22:30:42.942Z,60.20
2023-03-18T22:33:18.229Z,60.30
2023-03-18T22:35:46.201Z,60.30
2023-03-18T22:38:16.877Z,60.00
2023-03-18T22:40:45.264Z,59.90
2023-03-18T22:43:22.682Z,60.20
2023-03-18T22:45:50.674Z,60.00
2023-03-18T22:48:18.835Z,60.00
2023-03-18T22:50:46.849Z,60.50
2023-03-18T22:53:19.017Z,60.50
2023-03-18T22:55:47.020Z,60.00
2023-03-18T22:58:18.471Z,59.80
2023-03-18T23:00:46.498Z,59.90
2023-03-18T23:03:17.584Z,60.00
2023-03-18T23:05:45.991Z,60.00
2023-03-18T23:08:13.990Z,60.10
2023-03-18T23:10:43.710Z,60.20
2023-03-18T23:13:15.498Z,60.30
2023-03-18T23:15:43.491Z,60.40
2023-03-18T23:18:14.143Z,60.50
2023-03-18T23:20:42.078Z,60.70
2023-03-18T23:23:10.080Z,60.70
2023-03-18T23:25:38.027Z,60.70
2023-03-18T23:28:07.631Z,60.80
2023-03-18T23:30:35.854Z,60.80
2023-03-18T23:33:03.954Z,60.80
2023-03-18T23:35:32.710Z,60.80
2023-03-18T23:38:00.931Z,60.80
2023-03-18T23:40:28.858Z,60.80
2023-03-18T23:42:56.741Z,60.80
2023-03-18T23:45:27.610Z,60.90
2023-03-18T23:47:55.517Z,60.90
2023-03-18T23:50:23.440Z,60.90
2023-03-18T23:52:51.431Z,61.00
2023-03-18T23:55:33.605Z,61.00
2023-03-18T23:58:02.431Z,61.00
